sensor_id;sensor_type;location;lat;lon;timestamp;temperature;humidity
23618;DHT22;18207;32.078;34.818;2023-05-07T00:00:27;27.20;43.60
23618;DHT22;18207;32.078;34.818;2023-05-07T00:02:58;27.20;43.70
23618;DHT22;18207;32.078;34.818;2023-05-07T00:05:29;27.20;43.70
23618;DHT22;18207;32.078;34.818;2023-05-07T00:08:00;27.20;43.70
23618;DHT22;18207;32.078;34.818;2023-05-07T00:10:33;27.20;43.70
23618;DHT22;18207;32.078;34.818;2023-05-07T00:13:04;27.20;43.80
23618;DHT22;18207;32.078;34.818;2023-05-07T00:15:33;27.10;43.80
23618;DHT22;18207;32.078;34.818;2023-05-07T00:18:04;27.10;43.80
23618;DHT22;18207;32.078;34.818;2023-05-07T00:20:34;27.20;43.90
23618;DHT22;18207;32.078;34.818;2023-05-07T00:23:04;27.10;43.80
23618;DHT22;18207;32.078;34.818;2023-05-07T00:25:36;27.10;44.10
23618;DHT22;18207;32.078;34.818;2023-05-07T00:28:07;27.10;43.90
23618;DHT22;18207;32.078;34.818;2023-05-07T00:30:37;27.10;43.90
23618;DHT22;18207;32.078;34.818;2023-05-07T00:33:07;27.10;43.90
23618;DHT22;18207;32.078;34.818;2023-05-07T00:35:37;27.10;43.90
23618;DHT22;18207;32.078;34.818;2023-05-07T00:38:07;27.10;43.90
23618;DHT22;18207;32.078;34.818;2023-05-07T00:40:40;27.10;43.90
23618;DHT22;18207;32.078;34.818;2023-05-07T00:43:12;27.10;43.90
23618;DHT22;18207;32.078;34.818;2023-05-07T00:45:42;27.10;43.90
23618;DHT22;18207;32.078;34.818;2023-05-07T00:48:13;27.10;43.90
23618;DHT22;18207;32.078;34.818;2023-05-07T00:50:45;27.10;43.90
23618;DHT22;18207;32.078;34.818;2023-05-07T00:53:15;27.00;44.50
23618;DHT22;18207;32.078;34.818;2023-05-07T00:55:48;27.00;43.90
23618;DHT22;18207;32.078;34.818;2023-05-07T00:58:20;26.90;43.80
23618;DHT22;18207;32.078;34.818;2023-05-07T01:00:50;26.90;43.80
23618;DHT22;18207;32.078;34.818;2023-05-07T01:03:21;26.90;43.80
23618;DHT22;18207;32.078;34.818;2023-05-07T01:05:53;26.80;43.70
23618;DHT22;18207;32.078;34.818;2023-05-07T01:08:27;26.80;43.70
23618;DHT22;18207;32.078;34.818;2023-05-07T01:11:00;26.80;43.70
23618;DHT22;18207;32.078;34.818;2023-05-07T01:13:31;26.80;43.60
23618;DHT22;18207;32.078;34.818;2023-05-07T01:16:03;26.70;43.50
23618;DHT22;18207;32.078;34.818;2023-05-07T01:18:35;26.70;43.40
23618;DHT22;18207;32.078;34.818;2023-05-07T01:21:05;26.70;43.40
23618;DHT22;18207;32.078;34.818;2023-05-07T01:23:42;26.60;43.30
23618;DHT22;18207;32.078;34.818;2023-05-07T01:26:13;26.60;43.40
23618;DHT22;18207;32.078;34.818;2023-05-07T01:28:43;26.60;43.40
23618;DHT22;18207;32.078;34.818;2023-05-07T01:31:14;26.60;43.40
23618;DHT22;18207;32.078;34.818;2023-05-07T01:33:46;26.50;43.30
23618;DHT22;18207;32.078;34.818;2023-05-07T01:36:20;26.50;43.30
23618;DHT22;18207;32.078;34.818;2023-05-07T01:38:57;26.40;43.30
23618;DHT22;18207;32.078;34.818;2023-05-07T01:41:28;26.40;43.40
23618;DHT22;18207;32.078;34.818;2023-05-07T01:43:58;26.40;43.50
23618;DHT22;18207;32.078;34.818;2023-05-07T01:46:30;26.40;43.50
23618;DHT22;18207;32.078;34.818;2023-05-07T01:49:01;26.40;43.50
23618;DHT22;18207;32.078;34.818;2023-05-07T01:51:33;26.40;43.50
23618;DHT22;18207;32.078;34.818;2023-05-07T01:54:06;26.40;43.50
23618;DHT22;18207;32.078;34.818;2023-05-07T01:56:36;26.40;43.50
23618;DHT22;18207;32.078;34.818;2023-05-07T01:59:07;26.40;43.50
23618;DHT22;18207;32.078;34.818;2023-05-07T02:01:37;26.30;43.30
23618;DHT22;18207;32.078;34.818;2023-05-07T02:04:07;26.30;43.30
23618;DHT22;18207;32.078;34.818;2023-05-07T02:06:37;26.30;43.20
23618;DHT22;18207;32.078;34.818;2023-05-07T02:09:10;26.30;43.80
23618;DHT22;18207;32.078;34.818;2023-05-07T02:11:45;26.30;43.20
23618;DHT22;18207;32.078;34.818;2023-05-07T02:14:16;26.20;43.20
23618;DHT22;18207;32.078;34.818;2023-05-07T02:16:47;26.20;43.30
23618;DHT22;18207;32.078;34.818;2023-05-07T02:19:18;26.20;43.30
23618;DHT22;18207;32.078;34.818;2023-05-07T02:21:49;26.20;43.30
23618;DHT22;18207;32.078;34.818;2023-05-07T02:24:21;26.20;43.30
23618;DHT22;18207;32.078;34.818;2023-05-07T02:26:51;26.20;43.20
23618;DHT22;18207;32.078;34.818;2023-05-07T02:29:21;26.20;43.20
23618;DHT22;18207;32.078;34.818;2023-05-07T02:31:52;26.10;43.20
23618;DHT22;18207;32.078;34.818;2023-05-07T02:34:23;26.10;43.20
23618;DHT22;18207;32.078;34.818;2023-05-07T02:36:53;26.10;43.20
23618;DHT22;18207;32.078;34.818;2023-05-07T02:39:25;26.10;43.10
23618;DHT22;18207;32.078;34.818;2023-05-07T02:41:56;26.10;43.20
23618;DHT22;18207;32.078;34.818;2023-05-07T02:44:26;26.10;43.10
23618;DHT22;18207;32.078;34.818;2023-05-07T02:46:58;26.10;43.10
23618;DHT22;18207;32.078;34.818;2023-05-07T02:49:29;26.00;43.10
23618;DHT22;18207;32.078;34.818;2023-05-07T02:51:59;26.00;43.10
23618;DHT22;18207;32.078;34.818;2023-05-07T02:54:32;26.00;43.00
23618;DHT22;18207;32.078;34.818;2023-05-07T02:57:03;26.00;43.00
23618;DHT22;18207;32.078;34.818;2023-05-07T02:59:33;26.00;43.00
23618;DHT22;18207;32.078;34.818;2023-05-07T03:02:04;26.00;43.00
23618;DHT22;18207;32.078;34.818;2023-05-07T03:04:34;26.00;43.00
23618;DHT22;18207;32.078;34.818;2023-05-07T03:07:05;25.90;42.90
23618;DHT22;18207;32.078;34.818;2023-05-07T03:09:38;25.90;43.00
23618;DHT22;18207;32.078;34.818;2023-05-07T03:12:08;25.90;43.60
23618;DHT22;18207;32.078;34.818;2023-05-07T03:14:38;25.90;43.00
23618;DHT22;18207;32.078;34.818;2023-05-07T03:17:15;25.90;43.00
23618;DHT22;18207;32.078;34.818;2023-05-07T03:19:46;25.90;43.00
23618;DHT22;18207;32.078;34.818;2023-05-07T03:22:16;25.90;42.90
23618;DHT22;18207;32.078;34.818;2023-05-07T03:24:48;25.90;43.00
23618;DHT22;18207;32.078;34.818;2023-05-07T03:27:19;25.90;43.00
23618;DHT22;18207;32.078;34.818;2023-05-07T03:29:49;25.90;42.90
23618;DHT22;18207;32.078;34.818;2023-05-07T03:32:20;25.90;43.00
23618;DHT22;18207;32.078;34.818;2023-05-07T03:34:51;25.90;43.00
23618;DHT22;18207;32.078;34.818;2023-05-07T03:37:22;25.90;43.10
23618;DHT22;18207;32.078;34.818;2023-05-07T03:39:53;25.80;43.10
23618;DHT22;18207;32.078;34.818;2023-05-07T03:42:24;25.80;43.00
23618;DHT22;18207;32.078;34.818;2023-05-07T03:44:55;25.90;43.10
23618;DHT22;18207;32.078;34.818;2023-05-07T03:47:25;25.90;43.10
23618;DHT22;18207;32.078;34.818;2023-05-07T03:49:56;25.90;43.10
23618;DHT22;18207;32.078;34.818;2023-05-07T03:52:27;25.90;43.10
23618;DHT22;18207;32.078;34.818;2023-05-07T03:55:01;25.90;43.10
23618;DHT22;18207;32.078;34.818;2023-05-07T03:57:31;25.90;43.10
23618;DHT22;18207;32.078;34.818;2023-05-07T04:00:02;25.90;43.10
23618;DHT22;18207;32.078;34.818;2023-05-07T04:02:34;25.90;43.10
23618;DHT22;18207;32.078;34.818;2023-05-07T04:05:06;26.00;43.20
23618;DHT22;18207;32.078;34.818;2023-05-07T04:07:37;26.00;43.20
23618;DHT22;18207;32.078;34.818;2023-05-07T04:10:10;26.00;43.20
23618;DHT22;18207;32.078;34.818;2023-05-07T04:12:41;26.00;43.20
23618;DHT22;18207;32.078;34.818;2023-05-07T04:15:12;26.00;43.30
23618;DHT22;18207;32.078;34.818;2023-05-07T04:17:43;26.00;43.30
23618;DHT22;18207;32.078;34.818;2023-05-07T04:20:15;26.00;43.30
23618;DHT22;18207;32.078;34.818;2023-05-07T04:22:46;26.10;43.40
23618;DHT22;18207;32.078;34.818;2023-05-07T04:25:22;26.10;43.50
23618;DHT22;18207;32.078;34.818;2023-05-07T04:27:54;26.10;43.50
23618;DHT22;18207;32.078;34.818;2023-05-07T04:30:24;26.10;43.60
23618;DHT22;18207;32.078;34.818;2023-05-07T04:32:55;26.10;43.60
23618;DHT22;18207;32.078;34.818;2023-05-07T04:35:27;26.10;43.70
23618;DHT22;18207;32.078;34.818;2023-05-07T04:37:57;26.20;43.90
23618;DHT22;18207;32.078;34.818;2023-05-07T04:40:30;26.20;43.90
23618;DHT22;18207;32.078;34.818;2023-05-07T04:43:02;26.30;44.10
23618;DHT22;18207;32.078;34.818;2023-05-07T04:45:34;26.30;44.00
23618;DHT22;18207;32.078;34.818;2023-05-07T04:48:06;26.40;44.10
23618;DHT22;18207;32.078;34.818;2023-05-07T04:50:36;26.40;44.10
23618;DHT22;18207;32.078;34.818;2023-05-07T04:53:06;26.40;44.10
23618;DHT22;18207;32.078;34.818;2023-05-07T04:55:39;26.40;44.10
23618;DHT22;18207;32.078;34.818;2023-05-07T04:58:10;26.50;44.20
23618;DHT22;18207;32.078;34.818;2023-05-07T05:00:42;26.50;44.20
23618;DHT22;18207;32.078;34.818;2023-05-07T05:03:13;26.50;44.20
23618;DHT22;18207;32.078;34.818;2023-05-07T05:05:44;26.50;44.30
23618;DHT22;18207;32.078;34.818;2023-05-07T05:08:16;26.60;44.40
23618;DHT22;18207;32.078;34.818;2023-05-07T05:10:49;26.60;44.40
23618;DHT22;18207;32.078;34.818;2023-05-07T05:13:20;26.60;44.50
23618;DHT22;18207;32.078;34.818;2023-05-07T05:15:52;26.60;44.50
23618;DHT22;18207;32.078;34.818;2023-05-07T05:18:23;26.70;44.50
23618;DHT22;18207;32.078;34.818;2023-05-07T05:20:54;26.70;44.50
23618;DHT22;18207;32.078;34.818;2023-05-07T05:23:25;26.80;44.60
23618;DHT22;18207;32.078;34.818;2023-05-07T05:25:59;26.70;44.50
23618;DHT22;18207;32.078;34.818;2023-05-07T05:28:30;26.80;44.50
23618;DHT22;18207;32.078;34.818;2023-05-07T05:31:00;26.80;44.50
23618;DHT22;18207;32.078;34.818;2023-05-07T05:33:31;26.90;44.60
23618;DHT22;18207;32.078;34.818;2023-05-07T05:36:03;26.90;44.60
23618;DHT22;18207;32.078;34.818;2023-05-07T05:38:34;26.90;44.60
23618;DHT22;18207;32.078;34.818;2023-05-07T05:41:07;26.90;44.60
23618;DHT22;18207;32.078;34.818;2023-05-07T05:43:39;27.00;44.70
23618;DHT22;18207;32.078;34.818;2023-05-07T05:46:10;27.00;44.70
23618;DHT22;18207;32.078;34.818;2023-05-07T05:48:43;27.00;44.70
23618;DHT22;18207;32.078;34.818;2023-05-07T05:51:14;27.00;44.60
23618;DHT22;18207;32.078;34.818;2023-05-07T05:53:44;27.10;44.50
23618;DHT22;18207;32.078;34.818;2023-05-07T05:56:16;27.10;44.50
23618;DHT22;18207;32.078;34.818;2023-05-07T05:58:47;27.10;44.40
23618;DHT22;18207;32.078;34.818;2023-05-07T06:01:18;27.20;44.40
23618;DHT22;18207;32.078;34.818;2023-05-07T06:03:49;27.20;44.40
23618;DHT22;18207;32.078;34.818;2023-05-07T06:06:19;27.20;44.30
23618;DHT22;18207;32.078;34.818;2023-05-07T06:08:50;27.20;44.30
23618;DHT22;18207;32.078;34.818;2023-05-07T06:11:22;27.20;44.20
23618;DHT22;18207;32.078;34.818;2023-05-07T06:13:53;27.20;44.10
23618;DHT22;18207;32.078;34.818;2023-05-07T06:16:25;27.20;44.20
23618;DHT22;18207;32.078;34.818;2023-05-07T06:18:55;27.20;44.10
23618;DHT22;18207;32.078;34.818;2023-05-07T06:21:25;27.20;44.20
23618;DHT22;18207;32.078;34.818;2023-05-07T06:23:56;27.20;44.30
23618;DHT22;18207;32.078;34.818;2023-05-07T06:26:28;27.10;44.20
23618;DHT22;18207;32.078;34.818;2023-05-07T06:28:58;27.20;44.30
23618;DHT22;18207;32.078;34.818;2023-05-07T06:31:30;27.10;44.30
23618;DHT22;18207;32.078;34.818;2023-05-07T06:34:01;27.10;44.40
23618;DHT22;18207;32.078;34.818;2023-05-07T06:36:31;27.20;44.50
23618;DHT22;18207;32.078;34.818;2023-05-07T06:39:01;27.20;44.50
23618;DHT22;18207;32.078;34.818;2023-05-07T06:41:33;27.20;44.50
23618;DHT22;18207;32.078;34.818;2023-05-07T06:44:04;27.20;44.50
23618;DHT22;18207;32.078;34.818;2023-05-07T06:46:36;27.30;44.60
23618;DHT22;18207;32.078;34.818;2023-05-07T06:49:06;27.30;44.70
23618;DHT22;18207;32.078;34.818;2023-05-07T06:51:36;27.30;44.60
23618;DHT22;18207;32.078;34.818;2023-05-07T06:54:07;27.30;44.60
23618;DHT22;18207;32.078;34.818;2023-05-07T06:56:40;27.40;44.60
23618;DHT22;18207;32.078;34.818;2023-05-07T06:59:10;27.40;44.60
23618;DHT22;18207;32.078;34.818;2023-05-07T07:01:40;27.50;44.60
23618;DHT22;18207;32.078;34.818;2023-05-07T07:04:11;27.50;44.40
23618;DHT22;18207;32.078;34.818;2023-05-07T07:06:40;27.50;44.20
23618;DHT22;18207;32.078;34.818;2023-05-07T07:09:18;27.60;44.20
23618;DHT22;18207;32.078;34.818;2023-05-07T07:11:52;27.60;44.20
23618;DHT22;18207;32.078;34.818;2023-05-07T07:14:23;27.60;44.20
23618;DHT22;18207;32.078;34.818;2023-05-07T07:16:53;27.70;44.30
23618;DHT22;18207;32.078;34.818;2023-05-07T07:19:24;27.70;44.10
23618;DHT22;18207;32.078;34.818;2023-05-07T07:21:54;27.80;44.10
23618;DHT22;18207;32.078;34.818;2023-05-07T07:24:25;27.90;44.00
23618;DHT22;18207;32.078;34.818;2023-05-07T07:26:57;27.90;44.00
23618;DHT22;18207;32.078;34.818;2023-05-07T07:29:28;28.00;44.00
23618;DHT22;18207;32.078;34.818;2023-05-07T07:31:58;28.10;43.90
23618;DHT22;18207;32.078;34.818;2023-05-07T07:34:29;28.10;43.90
23618;DHT22;18207;32.078;34.818;2023-05-07T07:36:59;28.20;43.90
23618;DHT22;18207;32.078;34.818;2023-05-07T07:39:32;28.30;43.90
23618;DHT22;18207;32.078;34.818;2023-05-07T07:42:04;28.40;43.80
23618;DHT22;18207;32.078;34.818;2023-05-07T07:44:35;28.50;43.70
23618;DHT22;18207;32.078;34.818;2023-05-07T07:47:07;28.60;43.60
23618;DHT22;18207;32.078;34.818;2023-05-07T07:49:38;28.70;43.50
23618;DHT22;18207;32.078;34.818;2023-05-07T07:52:09;28.70;43.30
23618;DHT22;18207;32.078;34.818;2023-05-07T07:54:39;28.70;43.20
23618;DHT22;18207;32.078;34.818;2023-05-07T07:57:12;28.70;43.10
23618;DHT22;18207;32.078;34.818;2023-05-07T07:59:42;28.80;43.00
23618;DHT22;18207;32.078;34.818;2023-05-07T08:02:13;28.80;43.10
23618;DHT22;18207;32.078;34.818;2023-05-07T08:04:43;28.80;42.80
23618;DHT22;18207;32.078;34.818;2023-05-07T08:07:14;28.80;42.80
23618;DHT22;18207;32.078;34.818;2023-05-07T08:09:46;28.80;42.70
23618;DHT22;18207;32.078;34.818;2023-05-07T08:12:19;28.80;42.70
23618;DHT22;18207;32.078;34.818;2023-05-07T08:14:50;28.70;42.60
23618;DHT22;18207;32.078;34.818;2023-05-07T08:17:21;28.70;42.60
23618;DHT22;18207;32.078;34.818;2023-05-07T08:19:52;28.70;42.70
23618;DHT22;18207;32.078;34.818;2023-05-07T08:22:22;28.70;42.60
23618;DHT22;18207;32.078;34.818;2023-05-07T08:24:53;28.70;42.60
23618;DHT22;18207;32.078;34.818;2023-05-07T08:27:25;28.70;42.60
23618;DHT22;18207;32.078;34.818;2023-05-07T08:29:55;28.70;42.60
23618;DHT22;18207;32.078;34.818;2023-05-07T08:32:25;28.70;42.60
23618;DHT22;18207;32.078;34.818;2023-05-07T08:34:56;28.70;42.60
23618;DHT22;18207;32.078;34.818;2023-05-07T08:37:26;28.70;42.50
23618;DHT22;18207;32.078;34.818;2023-05-07T08:39:56;28.70;42.50
23618;DHT22;18207;32.078;34.818;2023-05-07T08:42:29;28.60;42.50
23618;DHT22;18207;32.078;34.818;2023-05-07T08:45:08;28.60;42.60
23618;DHT22;18207;32.078;34.818;2023-05-07T08:47:43;28.60;42.60
23618;DHT22;18207;32.078;34.818;2023-05-07T08:50:16;28.60;42.60
23618;DHT22;18207;32.078;34.818;2023-05-07T08:52:48;28.60;42.60
23618;DHT22;18207;32.078;34.818;2023-05-07T08:55:19;28.60;42.70
23618;DHT22;18207;32.078;34.818;2023-05-07T08:57:52;28.60;42.80
23618;DHT22;18207;32.078;34.818;2023-05-07T09:00:23;28.50;42.80
23618;DHT22;18207;32.078;34.818;2023-05-07T09:02:54;28.40;42.70
23618;DHT22;18207;32.078;34.818;2023-05-07T09:05:24;28.40;42.80
23618;DHT22;18207;32.078;34.818;2023-05-07T09:07:55;28.40;42.80
23618;DHT22;18207;32.078;34.818;2023-05-07T09:10:29;28.30;42.80
23618;DHT22;18207;32.078;34.818;2023-05-07T09:13:05;28.30;42.90
23618;DHT22;18207;32.078;34.818;2023-05-07T09:15:35;28.30;43.60
23618;DHT22;18207;32.078;34.818;2023-05-07T09:18:06;28.30;43.10
23618;DHT22;18207;32.078;34.818;2023-05-07T09:20:36;28.40;43.20
23618;DHT22;18207;32.078;34.818;2023-05-07T09:23:08;28.40;43.20
23618;DHT22;18207;32.078;34.818;2023-05-07T09:25:39;28.40;43.10
23618;DHT22;18207;32.078;34.818;2023-05-07T09:28:12;28.40;43.00
23618;DHT22;18207;32.078;34.818;2023-05-07T09:30:43;28.50;43.10
23618;DHT22;18207;32.078;34.818;2023-05-07T09:33:13;28.50;43.10
23618;DHT22;18207;32.078;34.818;2023-05-07T09:35:43;28.50;43.20
23618;DHT22;18207;32.078;34.818;2023-05-07T09:38:14;28.60;43.20
23618;DHT22;18207;32.078;34.818;2023-05-07T09:41:02;28.60;43.20
23618;DHT22;18207;32.078;34.818;2023-05-07T09:43:36;28.60;43.20
23618;DHT22;18207;32.078;34.818;2023-05-07T09:46:08;28.60;43.10
23618;DHT22;18207;32.078;34.818;2023-05-07T09:48:42;28.70;43.10
23618;DHT22;18207;32.078;34.818;2023-05-07T09:51:25;28.80;43.10
23618;DHT22;18207;32.078;34.818;2023-05-07T09:53:59;28.80;43.10
23618;DHT22;18207;32.078;34.818;2023-05-07T09:56:31;28.90;43.10
23618;DHT22;18207;32.078;34.818;2023-05-07T09:59:04;28.90;43.10
23618;DHT22;18207;32.078;34.818;2023-05-07T10:01:38;29.00;43.00
23618;DHT22;18207;32.078;34.818;2023-05-07T10:04:12;29.00;42.80
23618;DHT22;18207;32.078;34.818;2023-05-07T10:06:44;29.10;42.80
23618;DHT22;18207;32.078;34.818;2023-05-07T10:09:15;29.10;42.80
23618;DHT22;18207;32.078;34.818;2023-05-07T10:11:50;29.10;42.70
23618;DHT22;18207;32.078;34.818;2023-05-07T10:14:23;29.20;42.70
23618;DHT22;18207;32.078;34.818;2023-05-07T10:16:54;29.20;42.70
23618;DHT22;18207;32.078;34.818;2023-05-07T10:19:26;29.20;42.60
23618;DHT22;18207;32.078;34.818;2023-05-07T10:22:03;29.30;42.60
23618;DHT22;18207;32.078;34.818;2023-05-07T10:24:36;29.30;42.60
23618;DHT22;18207;32.078;34.818;2023-05-07T10:27:09;29.30;42.60
23618;DHT22;18207;32.078;34.818;2023-05-07T10:29:51;29.40;42.50
23618;DHT22;18207;32.078;34.818;2023-05-07T10:32:37;29.40;42.30
23618;DHT22;18207;32.078;34.818;2023-05-07T10:35:11;29.40;42.20
23618;DHT22;18207;32.078;34.818;2023-05-07T10:37:47;29.50;42.20
23618;DHT22;18207;32.078;34.818;2023-05-07T10:40:19;29.50;42.00
23618;DHT22;18207;32.078;34.818;2023-05-07T10:42:55;29.50;42.00
23618;DHT22;18207;32.078;34.818;2023-05-07T10:45:29;29.50;41.90
23618;DHT22;18207;32.078;34.818;2023-05-07T10:48:10;29.50;41.90
23618;DHT22;18207;32.078;34.818;2023-05-07T10:50:45;29.60;41.80
23618;DHT22;18207;32.078;34.818;2023-05-07T10:53:24;29.60;41.80
23618;DHT22;18207;32.078;34.818;2023-05-07T10:56:24;29.60;41.80
23618;DHT22;18207;32.078;34.818;2023-05-07T10:59:31;29.60;41.70
23618;DHT22;18207;32.078;34.818;2023-05-07T11:02:13;29.60;41.70
23618;DHT22;18207;32.078;34.818;2023-05-07T11:04:43;29.60;41.70
23618;DHT22;18207;32.078;34.818;2023-05-07T11:07:28;29.60;41.70
23618;DHT22;18207;32.078;34.818;2023-05-07T11:10:01;29.60;41.50
23618;DHT22;18207;32.078;34.818;2023-05-07T11:12:52;29.60;41.50
23618;DHT22;18207;32.078;34.818;2023-05-07T11:15:43;29.60;41.30
23618;DHT22;18207;32.078;34.818;2023-05-07T11:18:17;29.60;41.30
23618;DHT22;18207;32.078;34.818;2023-05-07T11:20:56;29.60;41.30
23618;DHT22;18207;32.078;34.818;2023-05-07T11:26:46;29.60;41.30
23618;DHT22;18207;32.078;34.818;2023-05-07T11:29:18;29.60;41.30
23618;DHT22;18207;32.078;34.818;2023-05-07T11:31:50;29.60;41.30
23618;DHT22;18207;32.078;34.818;2023-05-07T11:34:24;29.60;41.10
23618;DHT22;18207;32.078;34.818;2023-05-07T11:36:56;29.60;41.10
23618;DHT22;18207;32.078;34.818;2023-05-07T11:39:32;29.50;41.00
23618;DHT22;18207;32.078;34.818;2023-05-07T11:42:05;29.50;41.00
23618;DHT22;18207;32.078;34.818;2023-05-07T11:44:44;29.50;41.00
23618;DHT22;18207;32.078;34.818;2023-05-07T11:47:18;29.50;41.00
23618;DHT22;18207;32.078;34.818;2023-05-07T11:49:51;29.50;41.10
23618;DHT22;18207;32.078;34.818;2023-05-07T11:52:24;29.50;41.00
23618;DHT22;18207;32.078;34.818;2023-05-07T11:54:55;29.50;41.00
23618;DHT22;18207;32.078;34.818;2023-05-07T11:57:27;29.50;41.00
23618;DHT22;18207;32.078;34.818;2023-05-07T11:59:59;29.50;41.00
23618;DHT22;18207;32.078;34.818;2023-05-07T12:02:32;29.50;41.00
23618;DHT22;18207;32.078;34.818;2023-05-07T12:05:05;29.40;40.90
23618;DHT22;18207;32.078;34.818;2023-05-07T12:07:37;29.40;40.90
23618;DHT22;18207;32.078;34.818;2023-05-07T12:10:08;29.40;40.80
23618;DHT22;18207;32.078;34.818;2023-05-07T12:12:41;29.40;40.80
23618;DHT22;18207;32.078;34.818;2023-05-07T12:15:16;29.40;40.90
23618;DHT22;18207;32.078;34.818;2023-05-07T12:17:46;29.30;40.80
23618;DHT22;18207;32.078;34.818;2023-05-07T12:20:20;29.30;40.80
23618;DHT22;18207;32.078;34.818;2023-05-07T12:22:51;29.30;40.80
23618;DHT22;18207;32.078;34.818;2023-05-07T12:25:22;29.30;40.80
23618;DHT22;18207;32.078;34.818;2023-05-07T12:27:53;29.30;40.90
23618;DHT22;18207;32.078;34.818;2023-05-07T12:30:23;29.30;40.90
23618;DHT22;18207;32.078;34.818;2023-05-07T12:32:54;29.30;40.80
23618;DHT22;18207;32.078;34.818;2023-05-07T12:35:31;29.30;40.80
23618;DHT22;18207;32.078;34.818;2023-05-07T12:38:08;29.30;40.90
23618;DHT22;18207;32.078;34.818;2023-05-07T12:40:41;29.30;41.00
23618;DHT22;18207;32.078;34.818;2023-05-07T12:43:15;29.30;41.00
23618;DHT22;18207;32.078;34.818;2023-05-07T12:45:48;29.20;41.00
23618;DHT22;18207;32.078;34.818;2023-05-07T12:48:20;29.30;41.00
23618;DHT22;18207;32.078;34.818;2023-05-07T12:50:53;29.30;41.00
23618;DHT22;18207;32.078;34.818;2023-05-07T12:53:25;29.20;40.90
23618;DHT22;18207;32.078;34.818;2023-05-07T12:55:58;29.20;41.00
23618;DHT22;18207;32.078;34.818;2023-05-07T12:58:30;29.20;41.10
23618;DHT22;18207;32.078;34.818;2023-05-07T13:01:06;29.20;40.90
23618;DHT22;18207;32.078;34.818;2023-05-07T13:03:38;29.20;41.00
23618;DHT22;18207;32.078;34.818;2023-05-07T13:06:11;29.20;40.90
23618;DHT22;18207;32.078;34.818;2023-05-07T13:08:42;29.20;41.00
23618;DHT22;18207;32.078;34.818;2023-05-07T13:11:13;29.20;41.00
23618;DHT22;18207;32.078;34.818;2023-05-07T13:13:43;29.10;40.80
23618;DHT22;18207;32.078;34.818;2023-05-07T13:16:14;29.20;40.80
23618;DHT22;18207;32.078;34.818;2023-05-07T13:18:48;29.10;40.80
23618;DHT22;18207;32.078;34.818;2023-05-07T13:21:20;29.20;40.80
23618;DHT22;18207;32.078;34.818;2023-05-07T13:23:50;29.10;40.70
23618;DHT22;18207;32.078;34.818;2023-05-07T13:26:21;29.10;40.70
23618;DHT22;18207;32.078;34.818;2023-05-07T13:28:53;29.10;40.70
23618;DHT22;18207;32.078;34.818;2023-05-07T13:31:24;29.10;40.60
23618;DHT22;18207;32.078;34.818;2023-05-07T13:33:55;29.00;40.50
23618;DHT22;18207;32.078;34.818;2023-05-07T13:36:27;29.00;40.50
23618;DHT22;18207;32.078;34.818;2023-05-07T13:39:00;29.00;40.50
23618;DHT22;18207;32.078;34.818;2023-05-07T13:41:31;29.00;40.60
23618;DHT22;18207;32.078;34.818;2023-05-07T13:44:01;29.00;40.60
23618;DHT22;18207;32.078;34.818;2023-05-07T13:46:32;28.90;40.50
23618;DHT22;18207;32.078;34.818;2023-05-07T13:49:02;29.00;40.60
23618;DHT22;18207;32.078;34.818;2023-05-07T13:51:35;28.90;40.50
23618;DHT22;18207;32.078;34.818;2023-05-07T13:54:05;28.90;40.50
23618;DHT22;18207;32.078;34.818;2023-05-07T13:56:35;28.90;40.50
23618;DHT22;18207;32.078;34.818;2023-05-07T13:59:06;28.90;40.50
23618;DHT22;18207;32.078;34.818;2023-05-07T14:01:36;28.90;40.40
23618;DHT22;18207;32.078;34.818;2023-05-07T14:04:07;28.80;40.30
23618;DHT22;18207;32.078;34.818;2023-05-07T14:06:40;28.80;40.30
23618;DHT22;18207;32.078;34.818;2023-05-07T14:09:11;28.80;40.30
23618;DHT22;18207;32.078;34.818;2023-05-07T14:11:41;28.80;40.40
23618;DHT22;18207;32.078;34.818;2023-05-07T14:14:12;28.80;40.40
23618;DHT22;18207;32.078;34.818;2023-05-07T14:16:43;28.70;40.20
23618;DHT22;18207;32.078;34.818;2023-05-07T14:19:16;28.70;40.30
23618;DHT22;18207;32.078;34.818;2023-05-07T14:21:48;28.70;40.20
23618;DHT22;18207;32.078;34.818;2023-05-07T14:24:19;28.70;40.20
23618;DHT22;18207;32.078;34.818;2023-05-07T14:27:04;28.70;40.30
23618;DHT22;18207;32.078;34.818;2023-05-07T14:29:34;28.60;40.20
23618;DHT22;18207;32.078;34.818;2023-05-07T14:32:05;28.60;40.20
23618;DHT22;18207;32.078;34.818;2023-05-07T14:34:35;28.60;40.20
23618;DHT22;18207;32.078;34.818;2023-05-07T14:37:07;28.60;40.20
23618;DHT22;18207;32.078;34.818;2023-05-07T14:39:38;28.60;40.30
23618;DHT22;18207;32.078;34.818;2023-05-07T14:42:09;28.60;40.30
23618;DHT22;18207;32.078;34.818;2023-05-07T14:44:40;28.50;40.20
23618;DHT22;18207;32.078;34.818;2023-05-07T14:47:13;28.50;40.20
23618;DHT22;18207;32.078;34.818;2023-05-07T14:49:46;28.50;40.20
23618;DHT22;18207;32.078;34.818;2023-05-07T14:52:18;28.40;40.20
23618;DHT22;18207;32.078;34.818;2023-05-07T14:54:49;28.40;40.20
23618;DHT22;18207;32.078;34.818;2023-05-07T14:57:19;28.40;40.20
23618;DHT22;18207;32.078;34.818;2023-05-07T14:59:49;28.40;40.20
23618;DHT22;18207;32.078;34.818;2023-05-07T15:02:20;28.30;40.00
23618;DHT22;18207;32.078;34.818;2023-05-07T15:04:50;28.30;40.00
23618;DHT22;18207;32.078;34.818;2023-05-07T15:07:23;28.30;40.00
23618;DHT22;18207;32.078;34.818;2023-05-07T15:09:54;28.30;40.00
23618;DHT22;18207;32.078;34.818;2023-05-07T15:12:24;28.30;40.10
23618;DHT22;18207;32.078;34.818;2023-05-07T15:14:55;28.30;40.10
23618;DHT22;18207;32.078;34.818;2023-05-07T15:17:25;28.20;40.00
23618;DHT22;18207;32.078;34.818;2023-05-07T15:19:56;28.20;40.00
23618;DHT22;18207;32.078;34.818;2023-05-07T15:22:29;28.20;40.60
23618;DHT22;18207;32.078;34.818;2023-05-07T15:25:00;28.10;40.00
23618;DHT22;18207;32.078;34.818;2023-05-07T15:27:30;28.10;40.00
23618;DHT22;18207;32.078;34.818;2023-05-07T15:30:00;28.10;40.00
23618;DHT22;18207;32.078;34.818;2023-05-07T15:32:31;28.10;40.10
23618;DHT22;18207;32.078;34.818;2023-05-07T15:35:02;28.10;40.70
23618;DHT22;18207;32.078;34.818;2023-05-07T15:37:34;28.10;40.10
23618;DHT22;18207;32.078;34.818;2023-05-07T15:40:06;28.10;40.00
23618;DHT22;18207;32.078;34.818;2023-05-07T15:42:38;28.00;40.00
23618;DHT22;18207;32.078;34.818;2023-05-07T15:45:09;28.00;40.00
23618;DHT22;18207;32.078;34.818;2023-05-07T15:47:40;28.00;40.10